sensor_id;sensor_type;location;lat;lon;timestamp;pressure;altitude;pressure_sealevel;temperature;humidity
13836;BME280;6988;52.614;13.500;2023-05-19T00:01:38;54294.88;;;-143.77;64.69
13836;BME280;6988;52.614;13.500;2023-05-19T00:06:34;54262.06;;;-143.77;65.27
13836;BME280;6988;52.614;13.500;2023-05-19T00:11:27;54268.22;;;-143.77;65.17
13836;BME280;6988;52.614;13.500;2023-05-19T00:16:20;54352.34;;;-143.77;65.07
13836;BME280;6988;52.614;13.500;2023-05-19T00:21:14;54278.47;;;-143.77;65.27
13836;BME280;6988;52.614;13.500;2023-05-19T00:26:07;54307.19;;;-143.77;65.07
13836;BME280;6988;52.614;13.500;2023-05-19T00:30:59;54262.06;;;-143.77;65.61
13836;BME280;6988;52.614;13.500;2023-05-19T00:35:52;54290.78;;;-143.77;66.01
13836;BME280;6988;52.614;13.500;2023-05-19T00:40:45;54311.28;;;-143.77;66.42
13836;BME280;6988;52.614;13.500;2023-05-19T00:45:38;54290.78;;;-143.77;67.04
13836;BME280;6988;52.614;13.500;2023-05-19T00:50:31;54280.53;;;-143.77;66.90
13836;BME280;6988;52.614;13.500;2023-05-19T00:55:27;54335.91;;;-143.77;66.69
13836;BME280;6988;52.614;13.500;2023-05-19T01:00:21;54325.66;;;-143.77;66.40
13836;BME280;6988;52.614;13.500;2023-05-19T01:05:13;54315.41;;;-143.77;66.88
13836;BME280;6988;52.614;13.500;2023-05-19T01:10:06;54342.06;;;-143.77;66.84
13836;BME280;6988;52.614;13.500;2023-05-19T01:14:59;54329.75;;;-143.77;66.55
13836;BME280;6988;52.614;13.500;2023-05-19T01:20:05;54335.91;;;-143.77;66.19
13836;BME280;6988;52.614;13.500;2023-05-19T01:25:36;54317.44;;;-143.77;66.29
13836;BME280;6988;52.614;13.500;2023-05-19T01:30:37;54323.59;;;-143.77;66.61
13836;BME280;6988;52.614;13.500;2023-05-19T01:35:31;54335.91;;;-143.77;66.49
13836;BME280;6988;52.614;13.500;2023-05-19T01:40:28;54340.03;;;-143.77;66.75
13836;BME280;6988;52.614;13.500;2023-05-19T01:45:22;54303.09;;;-143.77;66.63
13836;BME280;6988;52.614;13.500;2023-05-19T01:50:15;54313.34;;;-143.77;66.85
13836;BME280;6988;52.614;13.500;2023-05-19T01:55:09;54301.03;;;-143.77;66.54
13836;BME280;6988;52.614;13.500;2023-05-19T02:00:10;54337.97;;;-143.77;66.50
13836;BME280;6988;52.614;13.500;2023-05-19T02:05:20;54356.44;;;-143.77;66.56
13836;BME280;6988;52.614;13.500;2023-05-19T02:10:26;54364.66;;;-143.77;67.11
13836;BME280;6988;52.614;13.500;2023-05-19T02:15:24;54335.91;;;-143.77;67.26
13836;BME280;6988;52.614;13.500;2023-05-19T02:20:21;54360.53;;;-143.77;66.97
13836;BME280;6988;52.614;13.500;2023-05-19T02:25:13;54354.38;;;-143.77;67.21
13836;BME280;6988;52.614;13.500;2023-05-19T02:30:07;54356.44;;;-143.77;68.01
13836;BME280;6988;52.614;13.500;2023-05-19T02:35:01;54337.97;;;-143.77;68.22
13836;BME280;6988;52.614;13.500;2023-05-19T02:39:55;54354.38;;;-143.77;67.78
13836;BME280;6988;52.614;13.500;2023-05-19T02:44:47;54397.47;;;-143.77;67.99
13836;BME280;6988;52.614;13.500;2023-05-19T02:49:40;54335.91;;;-143.77;68.78
13836;BME280;6988;52.614;13.500;2023-05-19T02:54:33;54335.91;;;-143.77;68.77
13836;BME280;6988;52.614;13.500;2023-05-19T02:59:27;54331.81;;;-143.77;68.12
13836;BME280;6988;52.614;13.500;2023-05-19T03:04:19;54344.13;;;-143.77;68.33
13836;BME280;6988;52.614;13.500;2023-05-19T03:09:12;54344.13;;;-143.77;68.46
13836;BME280;6988;52.614;13.500;2023-05-19T03:14:05;54344.13;;;-143.77;68.58
13836;BME280;6988;52.614;13.500;2023-05-19T03:19:00;54370.81;;;-143.77;67.90
13836;BME280;6988;52.614;13.500;2023-05-19T03:23:52;54354.38;;;-143.77;67.91
13836;BME280;6988;52.614;13.500;2023-05-19T03:28:44;54340.03;;;-143.77;68.52
13836;BME280;6988;52.614;13.500;2023-05-19T03:33:36;54323.59;;;-143.77;68.56
13836;BME280;6988;52.614;13.500;2023-05-19T03:38:30;54333.88;;;-143.77;68.61
13836;BME280;6988;52.614;13.500;2023-05-19T03:43:24;54309.25;;;-143.77;68.56
13836;BME280;6988;52.614;13.500;2023-05-19T03:48:21;54327.72;;;-143.77;68.29
13836;BME280;6988;52.614;13.500;2023-05-19T03:53:47;54344.13;;;-143.77;68.66
13836;BME280;6988;52.614;13.500;2023-05-19T03:58:39;54340.03;;;-143.77;68.54
13836;BME280;6988;52.614;13.500;2023-05-19T04:03:33;54354.38;;;-143.77;69.00
13836;BME280;6988;52.614;13.500;2023-05-19T04:08:26;54327.72;;;-143.77;69.34
13836;BME280;6988;52.614;13.500;2023-05-19T04:13:20;54331.81;;;-143.77;69.50
13836;BME280;6988;52.614;13.500;2023-05-19T04:18:12;54305.13;;;-143.77;70.49
13836;BME280;6988;52.614;13.500;2023-05-19T04:23:04;54303.09;;;-143.77;70.91
13836;BME280;6988;52.614;13.500;2023-05-19T04:27:56;54298.97;;;-143.77;70.93
13836;BME280;6988;52.614;13.500;2023-05-19T04:32:49;54286.69;;;-143.77;71.31
13836;BME280;6988;52.614;13.500;2023-05-19T04:37:42;54298.97;;;-143.77;71.70
13836;BME280;6988;52.614;13.500;2023-05-19T04:42:36;54257.94;;;-143.77;71.39
13836;BME280;6988;52.614;13.500;2023-05-19T04:47:31;54294.88;;;-143.77;70.92
13836;BME280;6988;52.614;13.500;2023-05-19T04:52:27;54292.84;;;-143.77;70.91
13836;BME280;6988;52.614;13.500;2023-05-19T04:57:20;54298.97;;;-143.77;70.23
13836;BME280;6988;52.614;13.500;2023-05-19T05:02:12;54278.47;;;-143.77;70.47
13836;BME280;6988;52.614;13.500;2023-05-19T05:07:04;54276.41;;;-143.77;69.96
13836;BME280;6988;52.614;13.500;2023-05-19T05:12:01;54243.59;;;-143.77;69.78
13836;BME280;6988;52.614;13.500;2023-05-19T05:16:55;54280.53;;;-143.77;69.65
13836;BME280;6988;52.614;13.500;2023-05-19T05:21:49;54237.44;;;-143.77;68.71
13836;BME280;6988;52.614;13.500;2023-05-19T05:26:42;54233.31;;;-143.77;68.08
13836;BME280;6988;52.614;13.500;2023-05-19T05:31:35;54218.97;;;-143.77;67.80
13836;BME280;6988;52.614;13.500;2023-05-19T05:36:28;54216.91;;;-143.77;68.25
13836;BME280;6988;52.614;13.500;2023-05-19T05:41:21;54200.50;;;-143.77;67.77
13836;BME280;6988;52.614;13.500;2023-05-19T05:46:15;54212.81;;;-143.77;66.80
13836;BME280;6988;52.614;13.500;2023-05-19T05:51:10;54221.03;;;-143.77;66.24
13836;BME280;6988;52.614;13.500;2023-05-19T05:56:03;54192.28;;;-143.77;66.41
13836;BME280;6988;52.614;13.500;2023-05-19T06:01:04;54200.50;;;-143.77;66.10
13836;BME280;6988;52.614;13.500;2023-05-19T06:06:00;54153.31;;;-143.77;65.92
13836;BME280;6988;52.614;13.500;2023-05-19T06:10:53;54122.53;;;-143.77;64.59
13836;BME280;6988;52.614;13.500;2023-05-19T06:15:46;54108.16;;;-143.77;64.34
13836;BME280;6988;52.614;13.500;2023-05-19T06:20:45;54073.28;;;-143.77;63.67
13836;BME280;6988;52.614;13.500;2023-05-19T06:25:37;54060.97;;;-143.77;62.84
13836;BME280;6988;52.614;13.500;2023-05-19T06:30:31;54019.94;;;-143.77;61.25
13836;BME280;6988;52.614;13.500;2023-05-19T06:35:36;54003.53;;;-143.77;60.68
13836;BME280;6988;52.614;13.500;2023-05-19T06:40:29;53944.03;;;-143.77;59.34
13836;BME280;6988;52.614;13.500;2023-05-19T06:45:22;53950.19;;;-143.77;57.67
13836;BME280;6988;52.614;13.500;2023-05-19T06:50:17;53991.22;;;-143.77;58.02
13836;BME280;6988;52.614;13.500;2023-05-19T06:55:11;53933.78;;;-143.77;57.86
13836;BME280;6988;52.614;13.500;2023-05-19T07:00:04;53950.19;;;-143.77;57.04
13836;BME280;6988;52.614;13.500;2023-05-19T07:04:59;53925.56;;;-143.77;56.03
13836;BME280;6988;52.614;13.500;2023-05-19T07:09:53;53944.03;;;-143.77;56.47
13836;BME280;6988;52.614;13.500;2023-05-19T07:14:45;53939.94;;;-143.77;56.33
13836;BME280;6988;52.614;13.500;2023-05-19T07:19:39;53876.34;;;-143.77;55.16
13836;BME280;6988;52.614;13.500;2023-05-19T07:24:31;53872.22;;;-143.77;55.67
13836;BME280;6988;52.614;13.500;2023-05-19T07:29:24;53810.69;;;-143.77;53.41
13836;BME280;6988;52.614;13.500;2023-05-19T07:34:16;53777.84;;;-143.77;53.97
13836;BME280;6988;52.614;13.500;2023-05-19T07:39:08;53790.16;;;-143.77;51.43
13836;BME280;6988;52.614;13.500;2023-05-19T07:44:00;53677.34;;;-143.77;52.64
13836;BME280;6988;52.614;13.500;2023-05-19T07:48:58;53638.34;;;-143.77;49.79
13836;BME280;6988;52.614;13.500;2023-05-19T07:53:50;53675.28;;;-143.77;48.27
13836;BME280;6988;52.614;13.500;2023-05-19T07:58:42;53642.47;;;-143.77;47.33
13836;BME280;6988;52.614;13.500;2023-05-19T08:03:34;53593.22;;;-143.77;44.93
13836;BME280;6988;52.614;13.500;2023-05-19T08:08:27;53603.47;;;-143.77;46.45
13836;BME280;6988;52.614;13.500;2023-05-19T08:13:19;53572.72;;;-143.77;44.45
13836;BME280;6988;52.614;13.500;2023-05-19T08:18:11;53525.53;;;-143.77;43.74
13836;BME280;6988;52.614;13.500;2023-05-19T08:23:03;53523.47;;;-143.77;43.59
13836;BME280;6988;52.614;13.500;2023-05-19T08:27:56;53523.47;;;-143.77;42.48
13836;BME280;6988;52.614;13.500;2023-05-19T08:32:48;53591.16;;;-143.77;42.67
13836;BME280;6988;52.614;13.500;2023-05-19T08:37:41;53505.00;;;-143.77;40.89
13836;BME280;6988;52.614;13.500;2023-05-19T08:42:33;53494.75;;;-143.77;41.58
13836;BME280;6988;52.614;13.500;2023-05-19T08:47:27;53478.34;;;-143.77;41.53
13836;BME280;6988;52.614;13.500;2023-05-19T08:52:29;53539.88;;;-143.77;40.51
13836;BME280;6988;52.614;13.500;2023-05-19T08:57:35;53447.56;;;-143.77;41.44
13836;BME280;6988;52.614;13.500;2023-05-19T09:02:29;53482.44;;;-143.77;40.11
13836;BME280;6988;52.614;13.500;2023-05-19T09:07:23;53679.38;;;-143.77;40.21
13836;BME280;6988;52.614;13.500;2023-05-19T09:12:16;53472.19;;;-143.77;39.62
13836;BME280;6988;52.614;13.500;2023-05-19T09:17:08;53392.19;;;-143.77;39.51
13836;BME280;6988;52.614;13.500;2023-05-19T09:22:01;53437.31;;;-143.77;38.24
13836;BME280;6988;52.614;13.500;2023-05-19T09:26:55;53420.91;;;-143.77;38.48
13836;BME280;6988;52.614;13.500;2023-05-19T09:31:47;53353.22;;;-143.77;37.96
13836;BME280;6988;52.614;13.500;2023-05-19T09:36:40;53379.88;;;-143.77;37.90
13836;BME280;6988;52.614;13.500;2023-05-19T09:41:34;53613.72;;;-143.77;38.63
13836;BME280;6988;52.614;13.500;2023-05-19T09:46:28;53599.38;;;-143.77;38.97
13836;BME280;6988;52.614;13.500;2023-05-19T09:51:20;53357.31;;;-143.77;38.84
13836;BME280;6988;52.614;13.500;2023-05-19T09:56:13;53638.34;;;-143.77;39.64
13836;BME280;6988;52.614;13.500;2023-05-19T10:01:07;53683.50;;;-143.77;39.43
13836;BME280;6988;52.614;13.500;2023-05-19T10:06:00;53525.53;;;-143.77;39.25
13836;BME280;6988;52.614;13.500;2023-05-19T10:10:53;53617.84;;;-143.77;39.05
13836;BME280;6988;52.614;13.500;2023-05-19T10:15:46;53511.16;;;-143.77;39.86
13836;BME280;6988;52.614;13.500;2023-05-19T10:20:46;53660.91;;;-143.77;38.40
13836;BME280;6988;52.614;13.500;2023-05-19T10:25:41;53638.34;;;-143.77;39.74
13836;BME280;6988;52.614;13.500;2023-05-19T10:30:38;53527.56;;;-143.77;39.19
13836;BME280;6988;52.614;13.500;2023-05-19T10:36:08;53572.72;;;-143.77;37.57
13836;BME280;6988;52.614;13.500;2023-05-19T10:41:10;53334.75;;;-143.77;37.81
13836;BME280;6988;52.614;13.500;2023-05-19T10:46:04;53453.72;;;-143.77;37.59
13836;BME280;6988;52.614;13.500;2023-05-19T10:50:56;53375.78;;;-143.77;37.71
13836;BME280;6988;52.614;13.500;2023-05-19T10:55:54;53552.19;;;-143.77;38.77
13836;BME280;6988;52.614;13.500;2023-05-19T11:00:46;53564.50;;;-143.77;38.17
13836;BME280;6988;52.614;13.500;2023-05-19T11:05:38;53461.94;;;-143.77;38.30
13836;BME280;6988;52.614;13.500;2023-05-19T11:10:31;53441.41;;;-143.77;37.93
13836;BME280;6988;52.614;13.500;2023-05-19T11:15:26;53457.81;;;-143.77;37.38
13836;BME280;6988;52.614;13.500;2023-05-19T11:20:22;53318.34;;;-143.77;37.53
13836;BME280;6988;52.614;13.500;2023-05-19T11:25:41;53453.72;;;-143.77;36.52
13836;BME280;6988;52.614;13.500;2023-05-19T11:30:35;53482.44;;;-143.77;37.20
13836;BME280;6988;52.614;13.500;2023-05-19T11:35:28;53511.16;;;-143.77;36.96
13836;BME280;6988;52.614;13.500;2023-05-19T11:40:21;53552.19;;;-143.77;38.26
13836;BME280;6988;52.614;13.500;2023-05-19T11:45:13;53550.13;;;-143.77;38.83
13836;BME280;6988;52.614;13.500;2023-05-19T11:50:10;53509.09;;;-143.77;39.26
13836;BME280;6988;52.614;13.500;2023-05-19T11:55:03;53529.63;;;-143.77;38.08
13836;BME280;6988;52.614;13.500;2023-05-19T11:59:55;53445.50;;;-143.77;37.58
13836;BME280;6988;52.614;13.500;2023-05-19T12:04:48;53519.38;;;-143.77;38.54
13836;BME280;6988;52.614;13.500;2023-05-19T12:09:42;53523.47;;;-143.77;37.97
13836;BME280;6988;52.614;13.500;2023-05-19T12:14:36;53398.34;;;-143.77;36.77
13836;BME280;6988;52.614;13.500;2023-05-19T12:19:28;53447.56;;;-143.77;36.58
13836;BME280;6988;52.614;13.500;2023-05-19T12:24:21;53574.75;;;-143.77;37.57
13836;BME280;6988;52.614;13.500;2023-05-19T12:29:14;53548.09;;;-143.77;36.76
13836;BME280;6988;52.614;13.500;2023-05-19T12:34:07;53595.28;;;-143.77;37.33
13836;BME280;6988;52.614;13.500;2023-05-19T12:38:59;53658.88;;;-143.77;38.08
13836;BME280;6988;52.614;13.500;2023-05-19T12:43:53;53591.16;;;-143.77;38.28
13836;BME280;6988;52.614;13.500;2023-05-19T12:48:46;53552.19;;;-143.77;38.32
13836;BME280;6988;52.614;13.500;2023-05-19T12:53:38;53556.28;;;-143.77;37.87
13836;BME280;6988;52.614;13.500;2023-05-19T12:58:32;53578.84;;;-143.77;37.84
13836;BME280;6988;52.614;13.500;2023-05-19T13:03:24;53630.16;;;-143.77;37.73
13836;BME280;6988;52.614;13.500;2023-05-19T13:08:20;53589.13;;;-143.77;37.87
13836;BME280;6988;52.614;13.500;2023-05-19T13:13:13;53599.38;;;-143.77;38.43
13836;BME280;6988;52.614;13.500;2023-05-19T13:18:07;53593.22;;;-143.77;38.85
13836;BME280;6988;52.614;13.500;2023-05-19T13:23:00;53609.63;;;-143.77;39.61
13836;BME280;6988;52.614;13.500;2023-05-19T13:27:53;53582.97;;;-143.77;39.56
13836;BME280;6988;52.614;13.500;2023-05-19T13:32:46;53474.25;;;-143.77;39.06
13836;BME280;6988;52.614;13.500;2023-05-19T13:37:38;53478.34;;;-143.77;38.23
13836;BME280;6988;52.614;13.500;2023-05-19T13:42:31;53605.53;;;-143.77;38.09
13836;BME280;6988;52.614;13.500;2023-05-19T13:47:25;53582.97;;;-143.77;38.99
13836;BME280;6988;52.614;13.500;2023-05-19T13:52:17;53652.72;;;-143.77;39.25
13836;BME280;6988;52.614;13.500;2023-05-19T13:57:10;53660.91;;;-143.77;39.85
13836;BME280;6988;52.614;13.500;2023-05-19T14:02:02;53714.25;;;-143.77;39.56
13836;BME280;6988;52.614;13.500;2023-05-19T14:06:56;53722.47;;;-143.77;40.56
13836;BME280;6988;52.614;13.500;2023-05-19T14:11:48;53720.41;;;-143.77;40.95
13836;BME280;6988;52.614;13.500;2023-05-19T14:16:40;53745.03;;;-143.77;41.20
13836;BME280;6988;52.614;13.500;2023-05-19T14:21:32;53716.31;;;-143.77;41.12
13836;BME280;6988;52.614;13.500;2023-05-19T14:26:25;53786.06;;;-143.77;41.43
13836;BME280;6988;52.614;13.500;2023-05-19T14:31:17;53722.47;;;-143.77;40.91
13836;BME280;6988;52.614;13.500;2023-05-19T14:36:10;53712.22;;;-143.77;40.88
13836;BME280;6988;52.614;13.500;2023-05-19T14:46:03;53720.41;;;-143.77;41.00
13836;BME280;6988;52.614;13.500;2023-05-19T14:50:55;53673.22;;;-143.77;41.56
13836;BME280;6988;52.614;13.500;2023-05-19T14:55:47;53669.13;;;-143.77;41.04
13836;BME280;6988;52.614;13.500;2023-05-19T15:00:39;53732.72;;;-143.77;41.25
13836;BME280;6988;52.614;13.500;2023-05-19T15:05:32;53749.13;;;-143.77;40.77
13836;BME280;6988;52.614;13.500;2023-05-19T15:10:24;53740.94;;;-143.77;41.61
13836;BME280;6988;52.614;13.500;2023-05-19T15:15:16;53740.94;;;-143.77;41.44
13836;BME280;6988;52.614;13.500;2023-05-19T15:20:09;53724.50;;;-143.77;41.97
13836;BME280;6988;52.614;13.500;2023-05-19T15:25:02;53759.41;;;-143.77;41.77
13836;BME280;6988;52.614;13.500;2023-05-19T15:29:54;53765.53;;;-143.77;41.88
13836;BME280;6988;52.614;13.500;2023-05-19T15:34:46;53712.22;;;-143.77;42.27
13836;BME280;6988;52.614;13.500;2023-05-19T15:39:38;53736.81;;;-143.77;41.31
13836;BME280;6988;52.614;13.500;2023-05-19T15:44:31;53745.03;;;-143.77;41.53
13836;BME280;6988;52.614;13.500;2023-05-19T15:49:23;53794.28;;;-143.77;42.21
13836;BME280;6988;52.614;13.500;2023-05-19T15:54:15;53740.94;;;-143.77;42.07
13836;BME280;6988;52.614;13.500;2023-05-19T15:59:07;53695.78;;;-143.77;42.32
13836;BME280;6988;52.614;13.500;2023-05-19T16:04:00;53747.09;;;-143.77;41.48
13836;BME280;6988;52.614;13.500;2023-05-19T16:08:53;53761.44;;;-143.77;42.59
13836;BME280;6988;52.614;13.500;2023-05-19T16:13:44;53767.59;;;-143.77;41.93
13836;BME280;6988;52.614;13.500;2023-05-19T16:18:36;53765.53;;;-143.77;42.43
13836;BME280;6988;52.614;13.500;2023-05-19T16:23:30;53800.41;;;-143.77;41.70
13836;BME280;6988;52.614;13.500;2023-05-19T16:28:22;53796.31;;;-143.77;42.34
13836;BME280;6988;52.614;13.500;2023-05-19T16:33:14;53794.28;;;-143.77;42.48
13836;BME280;6988;52.614;13.500;2023-05-19T16:38:06;53833.25;;;-143.77;42.72
13836;BME280;6988;52.614;13.500;2023-05-19T16:42:59;53798.38;;;-143.77;43.67
13836;BME280;6988;52.614;13.500;2023-05-19T16:47:51;53835.31;;;-143.77;43.77
13836;BME280;6988;52.614;13.500;2023-05-19T16:52:43;53886.59;;;-143.77;44.64
13836;BME280;6988;52.614;13.500;2023-05-19T16:57:36;53859.91;;;-143.77;44.56
13836;BME280;6988;52.614;13.500;2023-05-19T17:02:29;53827.09;;;-143.77;45.20
13836;BME280;6988;52.614;13.500;2023-05-19T17:07:21;53859.91;;;-143.77;45.20
13836;BME280;6988;52.614;13.500;2023-05-19T17:12:13;53872.22;;;-143.77;45.90
13836;BME280;6988;52.614;13.500;2023-05-19T17:17:05;53933.78;;;-143.77;46.02
13836;BME280;6988;52.614;13.500;2023-05-19T17:21:58;53890.69;;;-143.77;46.31
13836;BME280;6988;52.614;13.500;2023-05-19T17:26:50;53923.53;;;-143.77;46.61
13836;BME280;6988;52.614;13.500;2023-05-19T17:31:42;53925.56;;;-143.77;47.90
13836;BME280;6988;52.614;13.500;2023-05-19T17:36:34;53944.03;;;-143.77;48.88
13836;BME280;6988;52.614;13.500;2023-05-19T17:46:30;53913.25;;;-143.77;49.12
13836;BME280;6988;52.614;13.500;2023-05-19T17:51:24;53964.56;;;-143.77;50.32
13836;BME280;6988;52.614;13.500;2023-05-19T17:56:16;53954.28;;;-143.77;50.15
13836;BME280;6988;52.614;13.500;2023-05-19T18:01:12;53917.38;;;-143.77;50.52
13836;BME280;6988;52.614;13.500;2023-05-19T18:06:07;54001.47;;;-143.77;50.32
13836;BME280;6988;52.614;13.500;2023-05-19T18:10:59;53980.97;;;-143.77;52.23
13836;BME280;6988;52.614;13.500;2023-05-19T18:15:51;53970.72;;;-143.77;52.80
13836;BME280;6988;52.614;13.500;2023-05-19T18:20:43;53950.19;;;-143.77;53.90
13836;BME280;6988;52.614;13.500;2023-05-19T18:25:36;54007.63;;;-143.77;53.48
13836;BME280;6988;52.614;13.500;2023-05-19T18:30:28;53993.28;;;-143.77;53.28
13836;BME280;6988;52.614;13.500;2023-05-19T18:35:20;54011.75;;;-143.77;54.20
13836;BME280;6988;52.614;13.500;2023-05-19T18:40:12;54015.84;;;-143.77;55.16
13836;BME280;6988;52.614;13.500;2023-05-19T18:45:07;54007.63;;;-143.77;55.21
13836;BME280;6988;52.614;13.500;2023-05-19T18:49:59;54026.09;;;-143.77;55.11
13836;BME280;6988;52.614;13.500;2023-05-19T18:54:51;54017.91;;;-143.77;56.13
13836;BME280;6988;52.614;13.500;2023-05-19T18:59:43;54017.91;;;-143.77;56.50
13836;BME280;6988;52.614;13.500;2023-05-19T19:04:37;54069.19;;;-143.77;57.29
13836;BME280;6988;52.614;13.500;2023-05-19T19:09:28;54056.88;;;-143.77;57.62
13836;BME280;6988;52.614;13.500;2023-05-19T19:14:20;54073.28;;;-143.77;58.04
13836;BME280;6988;52.614;13.500;2023-05-19T19:19:12;54110.22;;;-143.77;58.24
13836;BME280;6988;52.614;13.500;2023-05-19T19:24:06;54116.38;;;-143.77;58.76
13836;BME280;6988;52.614;13.500;2023-05-19T19:28:58;54104.06;;;-143.77;58.75
13836;BME280;6988;52.614;13.500;2023-05-19T19:33:50;54132.78;;;-143.77;59.11
13836;BME280;6988;52.614;13.500;2023-05-19T19:38:42;54108.16;;;-143.77;59.46
13836;BME280;6988;52.614;13.500;2023-05-19T19:43:35;54065.09;;;-143.77;59.94
13836;BME280;6988;52.614;13.500;2023-05-19T19:48:27;54081.50;;;-143.77;59.87
13836;BME280;6988;52.614;13.500;2023-05-19T19:53:19;54110.22;;;-143.77;59.92
13836;BME280;6988;52.614;13.500;2023-05-19T19:58:13;54095.88;;;-143.77;59.80
13836;BME280;6988;52.614;13.500;2023-05-19T20:03:06;54089.72;;;-143.77;59.79
13836;BME280;6988;52.614;13.500;2023-05-19T20:07:58;54106.13;;;-143.77;59.60
13836;BME280;6988;52.614;13.500;2023-05-19T20:12:50;54095.88;;;-143.77;59.59
13836;BME280;6988;52.614;13.500;2023-05-19T20:17:42;54126.63;;;-143.77;59.53
13836;BME280;6988;52.614;13.500;2023-05-19T20:22:35;54102.00;;;-143.77;59.99
13836;BME280;6988;52.614;13.500;2023-05-19T20:27:27;54114.31;;;-143.77;59.85
13836;BME280;6988;52.614;13.500;2023-05-19T20:32:19;54110.22;;;-143.77;60.33
13836;BME280;6988;52.614;13.500;2023-05-19T20:37:11;54126.63;;;-143.77;60.67
13836;BME280;6988;52.614;13.500;2023-05-19T20:42:05;54134.84;;;-143.77;60.77
13836;BME280;6988;52.614;13.500;2023-05-19T20:46:57;54122.53;;;-143.77;61.24
13836;BME280;6988;52.614;13.500;2023-05-19T20:51:49;54130.75;;;-143.77;61.36
13836;BME280;6988;52.614;13.500;2023-05-19T20:56:41;54159.47;;;-143.77;61.47
13836;BME280;6988;52.614;13.500;2023-05-19T21:01:34;54147.16;;;-143.77;61.50
13836;BME280;6988;52.614;13.500;2023-05-19T21:06:26;54151.25;;;-143.77;61.84
13836;BME280;6988;52.614;13.500;2023-05-19T21:11:17;54143.06;;;-143.77;62.33
13836;BME280;6988;52.614;13.500;2023-05-19T21:16:09;54130.75;;;-143.77;62.33
13836;BME280;6988;52.614;13.500;2023-05-19T21:21:03;54182.03;;;-143.77;62.47
13836;BME280;6988;52.614;13.500;2023-05-19T21:25:55;54145.09;;;-143.77;62.39
13836;BME280;6988;52.614;13.500;2023-05-19T21:30:48;54188.19;;;-143.77;62.40
13836;BME280;6988;52.614;13.500;2023-05-19T21:35:40;54171.78;;;-143.77;62.65
13836;BME280;6988;52.614;13.500;2023-05-19T22:04:21;54186.13;;;-143.77;65.36
13836;BME280;6988;52.614;13.500;2023-05-19T22:09:13;54190.25;;;-143.77;65.91
13836;BME280;6988;52.614;13.500;2023-05-19T22:14:05;54200.50;;;-143.77;65.80
13836;BME280;6988;52.614;13.500;2023-05-19T22:18:57;54216.91;;;-143.77;65.80
13836;BME280;6988;52.614;13.500;2023-05-19T22:23:51;54200.50;;;-143.77;66.34
13836;BME280;6988;52.614;13.500;2023-05-19T22:28:43;54192.28;;;-143.77;65.90
13836;BME280;6988;52.614;13.500;2023-05-19T22:33:35;54206.66;;;-143.77;66.04
13836;BME280;6988;52.614;13.500;2023-05-19T22:38:26;54208.72;;;-143.77;66.12
13836;BME280;6988;52.614;13.500;2023-05-19T22:43:19;54190.25;;;-143.77;66.35
13836;BME280;6988;52.614;13.500;2023-05-19T22:48:11;54204.59;;;-143.77;66.08
13836;BME280;6988;52.614;13.500;2023-05-19T22:53:03;54216.91;;;-143.77;66.35
13836;BME280;6988;52.614;13.500;2023-05-19T22:57:55;54194.34;;;-143.77;66.58
13836;BME280;6988;52.614;13.500;2023-05-19T23:02:48;54218.97;;;-143.77;66.38
13836;BME280;6988;52.614;13.500;2023-05-19T23:07:40;54216.91;;;-143.77;66.34
13836;BME280;6988;52.614;13.500;2023-05-19T23:12:32;54216.91;;;-143.77;66.70
13836;BME280;6988;52.614;13.500;2023-05-19T23:17:24;54216.91;;;-143.77;67.02
13836;BME280;6988;52.614;13.500;2023-05-19T23:22:17;54218.97;;;-143.77;67.05
13836;BME280;6988;52.614;13.500;2023-05-19T23:27:09;54233.31;;;-143.77;67.48
13836;BME280;6988;52.614;13.500;2023-05-19T23:32:01;54216.91;;;-143.77;67.50
13836;BME280;6988;52.614;13.500;2023-05-19T23:36:53;54229.22;;;-143.77;67.63
13836;BME280;6988;52.614;13.500;2023-05-19T23:41:46;54204.59;;;-143.77;67.85
13836;BME280;6988;52.614;13.500;2023-05-19T23:46:38;54208.72;;;-143.77;68.74
13836;BME280;6988;52.614;13.500;2023-05-19T23:51:29;54255.91;;;-143.77;69.90
13836;BME280;6988;52.614;13.500;2023-05-19T23:56:21;54237.44;;;-143.77;70.88
